Time;durP1;ratioP1;P1;durP2;ratioP2;P2;SDS_P1;SDS_P2;PMS_P1;PMS_P2;Temp;Humidity;BMP_temperature;BMP_pressure;BME280_temperature;BME280_humidity;BME280_pressure;Samples;Min_cycle;Max_cycle;Signal;HPM_P1;HPM_P2
2023/11/15 00:00:13;;;;;;;2.03;0.50;;;;;;;;;;473798;28;1016;-71
2023/11/15 00:00:29;;;;;;;1.70;0.50;;;;;;;;;;472806;28;874;-71
2023/11/15 00:00:45;;;;;;;1.63;0.45;;;;;;;;;;471038;28;1359;-70
2023/11/15 00:01:00;;;;;;;1.58;0.40;;;;;;;;;;470347;28;910;-70
2023/11/15 00:01:16;;;;;;;2.13;0.50;;;;;;;;;;470699;28;870;-71
2023/11/15 00:01:32;;;;;;;2.50;0.60;;;;;;;;;;471855;28;1286;-70
2023/11/15 00:01:47;;;;;;;1.92;0.50;;;;;;;;;;472244;28;945;-71
2023/11/15 00:02:02;;;;;;;1.60;0.50;;;;;;;;;;469980;28;1233;-71
2023/11/15 00:02:18;;;;;;;1.23;0.50;;;;;;;;;;469200;28;914;-71
2023/11/15 00:02:34;;;;;;;1.90;0.50;;;;;;;;;;467745;28;1153;-71
2023/11/15 00:02:50;;;;;;;2.17;0.60;;;;;;;;;;469398;28;957;-71
2023/11/15 00:03:07;;;;;;;2.05;0.60;;;;;;;;;;467257;28;1312;-71
2023/11/15 00:03:22;;;;;;;2.35;0.65;;;;;;;;;;467642;28;1031;-71
2023/11/15 00:03:37;;;;;;;1.80;0.60;;;;;;;;;;468655;28;1030;-70
2023/11/15 00:03:53;;;;;;;1.70;0.60;;;;;;;;;;468996;28;955;-70
2023/11/15 00:04:08;;;;;;;2.00;0.60;;;;;;;;;;470130;28;994;-70
2023/11/15 00:04:24;;;;;;;1.87;0.60;;;;;;;;;;471034;28;850;-71
2023/11/15 00:04:39;;;;;;;1.60;0.50;;;;;;;;;;471137;28;1329;-71
2023/11/15 00:04:54;;;;;;;1.63;0.50;;;;;;;;;;469999;28;1143;-70
2023/11/15 00:05:09;;;;;;;1.80;0.50;;;;;;;;;;470453;28;1122;-70
2023/11/15 00:05:25;;;;;;;1.40;0.50;;;;;;;;;;470419;28;922;-71
2023/11/15 00:05:40;;;;;;;1.50;0.55;;;;;;;;;;471076;28;936;-70
2023/11/15 00:05:56;;;;;;;1.40;0.50;;;;;;;;;;470554;28;1029;-71
2023/11/15 00:06:12;;;;;;;1.67;0.57;;;;;;;;;;470778;28;917;-71
2023/11/15 00:06:27;;;;;;;1.90;0.60;;;;;;;;;;468571;28;1268;-71
2023/11/15 00:06:43;;;;;;;1.40;0.57;;;;;;;;;;469287;28;1133;-72
2023/11/15 00:06:59;;;;;;;1.60;0.60;;;;;;;;;;469457;28;1652;-71
2023/11/15 00:07:14;;;;;;;1.40;0.60;;;;;;;;;;466314;28;1145;-71
2023/11/15 00:07:30;;;;;;;1.27;0.57;;;;;;;;;;467165;28;917;-70
2023/11/15 00:07:46;;;;;;;1.42;0.50;;;;;;;;;;466440;28;1094;-71
2023/11/15 00:08:01;;;;;;;1.48;0.60;;;;;;;;;;466840;28;930;-71
2023/11/15 00:08:16;;;;;;;1.43;0.60;;;;;;;;;;465190;28;1038;-70
2023/11/15 00:08:32;;;;;;;1.17;0.50;;;;;;;;;;465276;28;1142;-71
2023/11/15 00:08:48;;;;;;;1.60;0.50;;;;;;;;;;465262;28;1077;-71
2023/11/15 00:09:05;;;;;;;1.90;0.60;;;;;;;;;;465377;28;1595;-71
2023/11/15 00:09:21;;;;;;;1.60;0.57;;;;;;;;;;466598;28;928;-71
2023/11/15 00:09:36;;;;;;;1.50;0.50;;;;;;;;;;466193;28;1417;-70
2023/11/15 00:09:53;;;;;;;1.57;0.60;;;;;;;;;;468143;28;914;-71
2023/11/15 00:10:08;;;;;;;1.50;0.50;;;;;;;;;;468261;28;976;-71
2023/11/15 00:10:24;;;;;;;2.22;0.55;;;;;;;;;;469872;28;929;-70
2023/11/15 00:10:40;;;;;;;2.57;0.63;;;;;;;;;;470827;28;953;-71
2023/11/15 00:10:55;;;;;;;2.42;0.65;;;;;;;;;;470763;28;1168;-71
2023/11/15 00:11:11;;;;;;;1.83;0.57;;;;;;;;;;473530;28;1007;-70
2023/11/15 00:11:26;;;;;;;1.20;0.50;;;;;;;;;;472421;28;929;-70
2023/11/15 00:11:42;;;;;;;1.17;0.53;;;;;;;;;;473348;28;888;-71
2023/11/15 00:11:58;;;;;;;1.88;0.70;;;;;;;;;;471034;28;1484;-71
2023/11/15 00:12:13;;;;;;;1.83;0.70;;;;;;;;;;470628;28;896;-70
2023/11/15 00:12:31;;;;;;;1.43;0.60;;;;;;;;;;470844;28;1392;-71
2023/11/15 00:12:46;;;;;;;1.60;0.60;;;;;;;;;;468780;28;1199;-70
2023/11/15 00:13:02;;;;;;;1.13;0.50;;;;;;;;;;470410;28;1103;-70
2023/11/15 00:13:18;;;;;;;1.67;0.50;;;;;;;;;;471040;28;1274;-71
2023/11/15 00:13:34;;;;;;;2.63;0.65;;;;;;;;;;468959;28;1679;-71
2023/11/15 00:13:50;;;;;;;2.30;0.57;;;;;;;;;;467525;28;1054;-70
2023/11/15 00:14:06;;;;;;;1.88;0.50;;;;;;;;;;468165;28;879;-70
2023/11/15 00:14:22;;;;;;;1.97;0.60;;;;;;;;;;468062;28;1289;-71
2023/11/15 00:14:37;;;;;;;1.55;0.50;;;;;;;;;;469043;28;1054;-71
2023/11/15 00:14:52;;;;;;;1.33;0.50;;;;;;;;;;468303;28;978;-71
2023/11/15 00:15:08;;;;;;;2.17;0.63;;;;;;;;;;468095;28;867;-71
2023/11/15 00:15:24;;;;;;;3.00;0.77;;;;;;;;;;466414;28;1201;-70
2023/11/15 00:15:39;;;;;;;2.47;0.67;;;;;;;;;;466135;28;901;-71
2023/11/15 00:15:55;;;;;;;2.38;0.60;;;;;;;;;;466948;28;1962;-71
2023/11/15 00:16:11;;;;;;;2.10;0.60;;;;;;;;;;467034;28;2473;-71
2023/11/15 00:16:26;;;;;;;1.53;0.50;;;;;;;;;;469848;28;1101;-70
2023/11/15 00:16:41;;;;;;;1.43;0.53;;;;;;;;;;471160;28;1155;-71
2023/11/15 00:16:57;;;;;;;1.45;0.50;;;;;;;;;;473140;28;879;-71
2023/11/15 00:17:12;;;;;;;2.03;0.60;;;;;;;;;;474098;28;909;-71
2023/11/15 00:17:30;;;;;;;2.10;0.70;;;;;;;;;;472957;28;1092;-71
2023/11/15 00:17:46;;;;;;;2.47;0.70;;;;;;;;;;470983;28;1191;-72
2023/11/15 00:18:04;;;;;;;2.13;0.70;;;;;;;;;;468290;28;1142;-71
2023/11/15 00:18:19;;;;;;;1.45;0.60;;;;;;;;;;469398;28;882;-71
2023/11/15 00:18:35;;;;;;;1.90;0.60;;;;;;;;;;466887;28;1667;-72
2023/11/15 00:18:50;;;;;;;2.47;0.70;;;;;;;;;;467394;28;1198;-70
2023/11/15 00:19:07;;;;;;;2.60;0.73;;;;;;;;;;466247;28;1049;-71
2023/11/15 00:19:23;;;;;;;2.13;0.65;;;;;;;;;;468579;28;1278;-71
2023/11/15 00:19:38;;;;;;;1.63;0.65;;;;;;;;;;467175;28;1041;-70
2023/11/15 00:19:54;;;;;;;1.92;0.70;;;;;;;;;;467817;28;859;-71
2023/11/15 00:20:12;;;;;;;2.07;0.70;;;;;;;;;;468444;28;1214;-71
2023/11/15 00:20:27;;;;;;;2.30;0.68;;;;;;;;;;467470;28;1300;-71
2023/11/15 00:20:43;;;;;;;2.42;0.70;;;;;;;;;;466345;28;1264;-71
2023/11/15 00:20:59;;;;;;;3.47;0.88;;;;;;;;;;466559;28;1252;-70
2023/11/15 00:21:14;;;;;;;2.67;0.80;;;;;;;;;;466490;28;1086;-70
2023/11/15 00:21:30;;;;;;;1.67;0.60;;;;;;;;;;467100;28;900;-71
2023/11/15 00:21:45;;;;;;;1.73;0.60;;;;;;;;;;467854;28;1132;-71
2023/11/15 00:22:01;;;;;;;2.00;0.60;;;;;;;;;;467751;28;846;-70
2023/11/15 00:22:16;;;;;;;2.43;0.60;;;;;;;;;;468290;28;1752;-71
2023/11/15 00:22:31;;;;;;;3.28;0.73;;;;;;;;;;468051;28;1044;-75
2023/11/15 00:22:47;;;;;;;3.47;0.80;;;;;;;;;;469381;28;917;-71
2023/11/15 00:23:02;;;;;;;2.40;0.70;;;;;;;;;;468100;28;2275;-70
2023/11/15 00:23:18;;;;;;;2.20;0.60;;;;;;;;;;469091;28;956;-70
2023/11/15 00:23:34;;;;;;;2.50;0.70;;;;;;;;;;467991;28;1204;-71
2023/11/15 00:23:50;;;;;;;2.88;0.80;;;;;;;;;;464502;28;1279;-70
2023/11/15 00:24:05;;;;;;;2.60;0.87;;;;;;;;;;467222;28;1238;-70
2023/11/15 00:24:21;;;;;;;2.22;0.77;;;;;;;;;;465205;28;1022;-71
2023/11/15 00:24:38;;;;;;;1.80;0.60;;;;;;;;;;466509;28;1141;-70
2023/11/15 00:24:54;;;;;;;1.35;0.60;;;;;;;;;;469191;28;1086;-70
2023/11/15 00:25:09;;;;;;;1.70;0.63;;;;;;;;;;469760;28;914;-71
2023/11/15 00:25:24;;;;;;;2.20;0.70;;;;;;;;;;470461;28;1048;-70
2023/11/15 00:25:40;;;;;;;1.83;0.60;;;;;;;;;;471562;28;925;-71
2023/11/15 00:25:55;;;;;;;1.90;0.70;;;;;;;;;;473759;28;854;-71
2023/11/15 00:26:10;;;;;;;2.15;0.80;;;;;;;;;;471622;28;1124;-71
2023/11/15 00:26:26;;;;;;;2.10;0.77;;;;;;;;;;470563;28;885;-71
2023/11/15 00:26:41;;;;;;;1.73;0.60;;;;;;;;;;466704;28;1396;-70
2023/11/15 00:26:57;;;;;;;1.37;0.60;;;;;;;;;;468305;28;1101;-70
2023/11/15 00:27:13;;;;;;;1.23;0.68;;;;;;;;;;469645;28;889;-71
2023/11/15 00:27:28;;;;;;;1.57;0.60;;;;;;;;;;468869;28;1211;-71
2023/11/15 00:27:43;;;;;;;1.70;0.60;;;;;;;;;;469149;28;1126;-71
2023/11/15 00:27:58;;;;;;;1.67;0.60;;;;;;;;;;467893;28;1243;-71
2023/11/15 00:28:14;;;;;;;1.77;0.60;;;;;;;;;;469260;28;965;-71
2023/11/15 00:28:30;;;;;;;1.80;0.52;;;;;;;;;;468925;28;1000;-71
2023/11/15 00:28:45;;;;;;;1.63;0.60;;;;;;;;;;468048;28;1057;-71
2023/11/15 00:29:00;;;;;;;1.83;0.70;;;;;;;;;;469136;28;1143;-71
2023/11/15 00:29:17;;;;;;;2.73;0.70;;;;;;;;;;467758;28;1326;-71
2023/11/15 00:29:33;;;;;;;2.28;0.63;;;;;;;;;;469430;28;1105;-71
2023/11/15 00:29:49;;;;;;;1.73;0.70;;;;;;;;;;470688;28;874;-70
2023/11/15 00:30:05;;;;;;;2.17;0.80;;;;;;;;;;470239;28;886;-71
2023/11/15 00:30:20;;;;;;;2.03;0.63;;;;;;;;;;468692;28;1127;-71
2023/11/15 00:30:36;;;;;;;1.40;0.60;;;;;;;;;;466809;28;1163;-71
2023/11/15 00:30:51;;;;;;;1.90;0.70;;;;;;;;;;467961;28;954;-71
2023/11/15 00:31:06;;;;;;;2.17;0.60;;;;;;;;;;469534;28;1043;-70
2023/11/15 00:31:22;;;;;;;2.10;0.60;;;;;;;;;;471107;28;1257;-70
2023/11/15 00:31:38;;;;;;;2.73;0.70;;;;;;;;;;470687;28;1075;-70
2023/11/15 00:31:54;;;;;;;2.67;0.68;;;;;;;;;;471001;28;999;-70
2023/11/15 00:32:10;;;;;;;1.70;0.60;;;;;;;;;;471068;28;870;-70
2023/11/15 00:32:25;;;;;;;1.55;0.60;;;;;;;;;;470848;28;1195;-71
2023/11/15 00:32:40;;;;;;;3.17;0.70;;;;;;;;;;473212;28;925;-70
2023/11/15 00:32:56;;;;;;;3.10;0.70;;;;;;;;;;471529;28;1176;-70
2023/11/15 00:33:11;;;;;;;1.73;0.60;;;;;;;;;;471480;28;876;-70
2023/11/15 00:33:26;;;;;;;1.53;0.53;;;;;;;;;;470736;28;948;-70
2023/11/15 00:33:42;;;;;;;1.73;0.60;;;;;;;;;;469850;28;1176;-71
2023/11/15 00:33:57;;;;;;;2.10;0.70;;;;;;;;;;469414;28;842;-70
2023/11/15 00:34:14;;;;;;;2.90;0.70;;;;;;;;;;469669;28;1028;-70
2023/11/15 00:34:30;;;;;;;3.35;0.70;;;;;;;;;;469405;28;1455;-70
2023/11/15 00:34:47;;;;;;;2.53;0.80;;;;;;;;;;469438;28;961;-70
2023/11/15 00:35:03;;;;;;;2.22;0.70;;;;;;;;;;470509;28;1390;-71
2023/11/15 00:35:18;;;;;;;2.45;0.73;;;;;;;;;;471109;28;1116;-70
2023/11/15 00:35:33;;;;;;;2.63;0.80;;;;;;;;;;469235;28;940;-70
2023/11/15 00:35:49;;;;;;;2.90;0.70;;;;;;;;;;466223;28;1133;-70
2023/11/15 00:36:05;;;;;;;2.53;0.80;;;;;;;;;;468024;28;2012;-70
2023/11/15 00:36:21;;;;;;;1.98;0.77;;;;;;;;;;469822;28;1242;-70
2023/11/15 00:36:38;;;;;;;1.80;0.70;;;;;;;;;;470433;28;1093;-71
2023/11/15 00:36:53;;;;;;;1.80;0.60;;;;;;;;;;472276;28;1057;-70
2023/11/15 00:37:10;;;;;;;1.20;0.50;;;;;;;;;;470917;28;1281;-70
2023/11/15 00:37:26;;;;;;;1.40;0.60;;;;;;;;;;468435;28;1240;-70
2023/11/15 00:37:42;;;;;;;1.65;0.60;;;;;;;;;;469781;28;1295;-70
2023/11/15 00:37:57;;;;;;;1.98;0.60;;;;;;;;;;470034;28;906;-71
2023/11/15 00:38:14;;;;;;;2.37;0.50;;;;;;;;;;467685;28;1094;-70
2023/11/15 00:38:30;;;;;;;2.30;0.50;;;;;;;;;;468341;28;968;-70
2023/11/15 00:38:51;;;;;;;1.60;0.70;;;;;;;;;;465770;28;1149;-70
2023/11/15 00:39:08;;;;;;;1.77;0.60;;;;;;;;;;466100;28;1099;-71
2023/11/15 00:39:23;;;;;;;2.08;0.57;;;;;;;;;;468293;28;1109;-71
2023/11/15 00:39:41;;;;;;;2.30;0.60;;;;;;;;;;470364;28;1060;-70
2023/11/15 00:39:58;;;;;;;2.95;0.70;;;;;;;;;;470276;28;1127;-70
2023/11/15 00:40:14;;;;;;;3.13;0.70;;;;;;;;;;469456;28;1687;-70
2023/11/15 00:40:30;;;;;;;2.40;0.60;;;;;;;;;;470102;28;1046;-70
2023/11/15 00:40:46;;;;;;;1.43;0.57;;;;;;;;;;470553;28;890;-70
2023/11/15 00:41:02;;;;;;;1.23;0.50;;;;;;;;;;469510;28;1318;-70
2023/11/15 00:41:18;;;;;;;1.10;0.50;;;;;;;;;;470846;28;910;-70
2023/11/15 00:41:35;;;;;;;1.27;0.60;;;;;;;;;;469143;28;1227;-71
2023/11/15 00:41:50;;;;;;;1.50;0.60;;;;;;;;;;469090;28;1019;-70
2023/11/15 00:42:07;;;;;;;1.33;0.50;;;;;;;;;;467886;28;1002;-71
2023/11/15 00:42:22;;;;;;;1.50;0.50;;;;;;;;;;469190;28;1122;-71
2023/11/15 00:42:37;;;;;;;1.60;0.50;;;;;;;;;;468917;28;1038;-70
2023/11/15 00:42:54;;;;;;;1.40;0.50;;;;;;;;;;467786;28;1248;-71
2023/11/15 00:43:09;;;;;;;1.52;0.60;;;;;;;;;;467016;28;1136;-70
2023/11/15 00:43:25;;;;;;;1.90;0.60;;;;;;;;;;467287;28;1445;-70
2023/11/15 00:43:40;;;;;;;2.28;0.50;;;;;;;;;;467753;28;1365;-70
2023/11/15 00:43:55;;;;;;;2.20;0.60;;;;;;;;;;467462;28;1187;-71
2023/11/15 00:44:11;;;;;;;1.90;0.70;;;;;;;;;;467556;28;1138;-71
2023/11/15 00:44:26;;;;;;;1.80;0.60;;;;;;;;;;467084;28;1029;-70
2023/11/15 00:44:41;;;;;;;2.03;0.63;;;;;;;;;;467561;28;926;-70
2023/11/15 00:44:57;;;;;;;2.45;0.68;;;;;;;;;;469438;28;879;-70
2023/11/15 00:45:12;;;;;;;2.20;0.60;;;;;;;;;;469669;28;961;-70
2023/11/15 00:45:27;;;;;;;2.90;0.60;;;;;;;;;;468539;28;1407;-70
2023/11/15 00:45:43;;;;;;;2.75;0.60;;;;;;;;;;468863;28;1178;-70
2023/11/15 00:45:58;;;;;;;2.00;0.60;;;;;;;;;;470612;28;1404;-70
2023/11/15 00:46:15;;;;;;;1.73;0.60;;;;;;;;;;468832;28;1247;-70
2023/11/15 00:46:32;;;;;;;1.40;0.57;;;;;;;;;;466268;28;1089;-71
2023/11/15 00:46:47;;;;;;;1.70;0.57;;;;;;;;;;464443;28;1343;-70
2023/11/15 00:47:06;;;;;;;1.43;0.50;;;;;;;;;;465237;28;1176;-70
2023/11/15 00:47:21;;;;;;;1.58;0.60;;;;;;;;;;465774;28;1190;-70
2023/11/15 00:47:37;;;;;;;1.85;0.60;;;;;;;;;;466749;28;1021;-71
2023/11/15 00:47:52;;;;;;;1.53;0.60;;;;;;;;;;467384;28;937;-71
2023/11/15 00:48:07;;;;;;;1.47;0.60;;;;;;;;;;467849;28;931;-71
2023/11/15 00:48:23;;;;;;;1.48;0.60;;;;;;;;;;468198;28;1203;-71
2023/11/15 00:48:42;;;;;;;2.17;0.57;;;;;;;;;;467333;28;1468;-71
2023/11/15 00:48:58;;;;;;;2.33;0.55;;;;;;;;;;468829;28;954;-71
2023/11/15 00:49:13;;;;;;;1.63;0.53;;;;;;;;;;468943;28;1038;-70
2023/11/15 00:49:29;;;;;;;1.87;0.60;;;;;;;;;;468758;28;1127;-70
2023/11/15 00:49:44;;;;;;;2.08;0.60;;;;;;;;;;469282;28;925;-71
2023/11/15 00:50:00;;;;;;;2.10;0.60;;;;;;;;;;466541;28;1339;-70
2023/11/15 00:50:15;;;;;;;1.60;0.60;;;;;;;;;;466460;28;1141;-70
2023/11/15 00:50:30;;;;;;;1.40;0.60;;;;;;;;;;467430;28;1063;-71
2023/11/15 00:50:46;;;;;;;1.20;0.50;;;;;;;;;;465732;28;1340;-70
2023/11/15 00:51:01;;;;;;;1.60;0.50;;;;;;;;;;465717;28;1145;-70
2023/11/15 00:51:16;;;;;;;2.10;0.60;;;;;;;;;;466863;28;1129;-71
2023/11/15 00:51:32;;;;;;;1.50;0.50;;;;;;;;;;467495;28;871;-70
2023/11/15 00:51:47;;;;;;;1.87;0.60;;;;;;;;;;467018;28;914;-70
2023/11/15 00:52:02;;;;;;;2.33;0.70;;;;;;;;;;468923;28;1052;-70
2023/11/15 00:52:17;;;;;;;2.22;0.70;;;;;;;;;;469744;28;962;-71
2023/11/15 00:52:33;;;;;;;2.00;0.60;;;;;;;;;;468760;28;1014;-71
2023/11/15 00:52:48;;;;;;;1.87;0.60;;;;;;;;;;468571;28;922;-71
2023/11/15 00:53:04;;;;;;;1.65;0.60;;;;;;;;;;467484;28;1061;-71
2023/11/15 00:53:20;;;;;;;1.92;0.63;;;;;;;;;;469679;28;1271;-70
2023/11/15 00:53:35;;;;;;;1.77;0.60;;;;;;;;;;466830;28;1074;-70
2023/11/15 00:53:51;;;;;;;1.70;0.63;;;;;;;;;;467064;28;936;-71
2023/11/15 00:54:06;;;;;;;2.10;0.70;;;;;;;;;;466655;28;1041;-71
2023/11/15 00:54:22;;;;;;;2.17;0.60;;;;;;;;;;466683;28;1162;-71
2023/11/15 00:54:38;;;;;;;1.85;0.50;;;;;;;;;;466486;28;914;-71
2023/11/15 00:54:53;;;;;;;1.43;0.50;;;;;;;;;;464825;28;1173;-71
2023/11/15 00:55:08;;;;;;;1.42;0.50;;;;;;;;;;466933;28;929;-71
2023/11/15 00:55:24;;;;;;;1.93;0.60;;;;;;;;;;468819;28;1211;-70
2023/11/15 00:55:39;;;;;;;1.73;0.60;;;;;;;;;;468804;28;1138;-70
2023/11/15 00:55:54;;;;;;;1.48;0.55;;;;;;;;;;469752;28;2004;-70
2023/11/15 00:56:11;;;;;;;1.67;0.60;;;;;;;;;;470557;28;1036;-71
2023/11/15 00:56:26;;;;;;;1.75;0.60;;;;;;;;;;470554;28;953;-70
2023/11/15 00:56:42;;;;;;;1.45;0.50;;;;;;;;;;471459;28;879;-71
2023/11/15 00:56:57;;;;;;;1.80;0.50;;;;;;;;;;470232;28;1107;-70
2023/11/15 00:57:13;;;;;;;2.20;0.60;;;;;;;;;;470490;28;1318;-70
2023/11/15 00:57:29;;;;;;;2.00;0.63;;;;;;;;;;471442;28;1090;-70
2023/11/15 00:57:45;;;;;;;2.03;0.73;;;;;;;;;;470408;28;891;-70
2023/11/15 00:58:03;;;;;;;1.58;0.60;;;;;;;;;;469832;28;1386;-70
2023/11/15 00:58:18;;;;;;;1.88;0.55;;;;;;;;;;471149;28;958;-70
2023/11/15 00:58:38;;;;;;;1.87;0.53;;;;;;;;;;470613;28;1079;-70
2023/11/15 00:58:56;;;;;;;1.70;0.60;;;;;;;;;;469832;28;1255;-70
2023/11/15 00:59:12;;;;;;;1.45;0.60;;;;;;;;;;471388;28;947;-71
2023/11/15 00:59:36;;;;;;;2.07;0.60;;;;;;;;;;470495;28;940;-71
2023/11/15 00:59:54;;;;;;;1.23;0.60;;;;;;;;;;469890;28;1286;-70
2023/11/15 01:00:23;;;;;;;1.60;0.60;;;;;;;;;;471206;28;1149;-70
2023/11/15 01:00:44;;;;;;;2.08;0.60;;;;;;;;;;470799;28;909;-70
2023/11/15 01:01:00;;;;;;;1.63;0.50;;;;;;;;;;472039;28;1049;-70
2023/11/15 01:01:16;;;;;;;2.33;0.67;;;;;;;;;;470611;28;1227;-71
2023/11/15 01:01:32;;;;;;;2.72;0.80;;;;;;;;;;468997;28;1213;-70
2023/11/15 01:01:57;;;;;;;2.07;0.60;;;;;;;;;;468784;28;1200;-71
2023/11/15 01:02:14;;;;;;;2.15;0.60;;;;;;;;;;469705;28;1018;-70
2023/11/15 01:02:32;;;;;;;2.22;0.60;;;;;;;;;;470253;28;958;-70
2023/11/15 01:02:48;;;;;;;2.00;0.65;;;;;;;;;;470054;28;982;-70
2023/11/15 01:03:04;;;;;;;2.53;0.80;;;;;;;;;;467914;28;1294;-71
2023/11/15 01:03:26;;;;;;;2.05;0.70;;;;;;;;;;468525;28;1266;-71
2023/11/15 01:03:45;;;;;;;1.73;0.50;;;;;;;;;;470648;28;941;-71
2023/11/15 01:04:01;;;;;;;3.50;0.60;;;;;;;;;;470934;28;953;-70
2023/11/15 01:04:16;;;;;;;3.00;0.70;;;;;;;;;;471187;28;914;-70
2023/11/15 01:04:32;;;;;;;1.75;0.60;;;;;;;;;;471073;28;862;-70
2023/11/15 01:04:50;;;;;;;2.55;0.70;;;;;;;;;;468542;28;1120;-71
2023/11/15 01:05:06;;;;;;;2.15;0.70;;;;;;;;;;470600;28;1101;-71
2023/11/15 01:05:21;;;;;;;2.20;0.70;;;;;;;;;;472449;28;1120;-71
2023/11/15 01:05:36;;;;;;;2.50;0.70;;;;;;;;;;470589;28;1223;-70
2023/11/15 01:05:56;;;;;;;2.73;0.80;;;;;;;;;;468536;28;1098;-71
2023/11/15 01:06:13;;;;;;;2.83;0.75;;;;;;;;;;468360;28;1354;-71
2023/11/15 01:06:29;;;;;;;1.85;0.60;;;;;;;;;;470571;28;1172;-71
2023/11/15 01:06:44;;;;;;;1.80;0.60;;;;;;;;;;468615;28;925;-70
2023/11/15 01:07:00;;;;;;;2.22;0.60;;;;;;;;;;465894;28;1116;-70
2023/11/15 01:07:15;;;;;;;2.60;0.60;;;;;;;;;;466528;28;1140;-70
2023/11/15 01:07:31;;;;;;;2.22;0.70;;;;;;;;;;469123;28;1304;-70
2023/11/15 01:07:47;;;;;;;2.00;0.70;;;;;;;;;;470437;28;1054;-70
2023/11/15 01:08:04;;;;;;;1.88;0.70;;;;;;;;;;469592;28;1302;-70
2023/11/15 01:08:19;;;;;;;2.13;0.68;;;;;;;;;;469636;28;1203;-70
2023/11/15 01:08:34;;;;;;;2.58;0.75;;;;;;;;;;469034;28;934;-71
2023/11/15 01:08:50;;;;;;;3.13;0.90;;;;;;;;;;468198;28;1065;-70
2023/11/15 01:09:08;;;;;;;2.80;0.80;;;;;;;;;;467978;28;1302;-71
2023/11/15 01:09:23;;;;;;;2.03;0.68;;;;;;;;;;467125;28;1114;-70
2023/11/15 01:09:38;;;;;;;1.70;0.63;;;;;;;;;;467018;28;1298;-70
2023/11/15 01:09:55;;;;;;;1.60;0.60;;;;;;;;;;467385;28;1489;-71
2023/11/15 01:10:11;;;;;;;1.45;0.55;;;;;;;;;;468806;28;1273;-70
2023/11/15 01:10:27;;;;;;;1.40;0.60;;;;;;;;;;467378;28;1070;-70
2023/11/15 01:10:43;;;;;;;1.70;0.63;;;;;;;;;;466868;28;898;-70
2023/11/15 01:10:58;;;;;;;2.90;0.77;;;;;;;;;;466860;28;1021;-70
2023/11/15 01:11:14;;;;;;;2.65;0.80;;;;;;;;;;466919;28;1016;-70
2023/11/15 01:11:29;;;;;;;2.20;0.80;;;;;;;;;;467000;28;1096;-70
2023/11/15 01:11:44;;;;;;;2.55;0.90;;;;;;;;;;468460;28;1089;-70
2023/11/15 01:12:00;;;;;;;3.10;0.90;;;;;;;;;;468381;28;1178;-70
2023/11/15 01:12:15;;;;;;;2.67;0.75;;;;;;;;;;469005;28;1288;-70
2023/11/15 01:12:31;;;;;;;1.70;0.60;;;;;;;;;;469983;28;1365;-71
2023/11/15 01:12:46;;;;;;;1.83;0.68;;;;;;;;;;471345;28;1042;-70
2023/11/15 01:13:02;;;;;;;2.47;0.73;;;;;;;;;;467907;28;1037;-71
2023/11/15 01:13:18;;;;;;;2.40;0.80;;;;;;;;;;469366;28;1133;-71
2023/11/15 01:13:34;;;;;;;2.67;1.00;;;;;;;;;;469005;28;1065;-71
2023/11/15 01:13:49;;;;;;;2.78;0.90;;;;;;;;;;468876;28;1232;-70
2023/11/15 01:14:05;;;;;;;2.60;0.80;;;;;;;;;;466504;28;1323;-70
2023/11/15 01:14:21;;;;;;;2.25;0.85;;;;;;;;;;467270;28;1272;-70
2023/11/15 01:14:36;;;;;;;2.33;0.75;;;;;;;;;;466171;28;1278;-70
2023/11/15 01:14:52;;;;;;;3.03;0.80;;;;;;;;;;466421;28;1338;-70
2023/11/15 01:15:08;;;;;;;2.55;0.82;;;;;;;;;;467813;28;1256;-71
2023/11/15 01:15:24;;;;;;;2.80;0.90;;;;;;;;;;467541;28;1119;-70
2023/11/15 01:15:39;;;;;;;3.08;0.90;;;;;;;;;;467865;28;1176;-70
2023/11/15 01:15:54;;;;;;;2.97;0.90;;;;;;;;;;467568;28;2024;-71
2023/11/15 01:16:10;;;;;;;2.73;0.90;;;;;;;;;;468956;28;1087;-70
2023/11/15 01:16:26;;;;;;;2.08;0.73;;;;;;;;;;468997;28;890;-70
2023/11/15 01:16:42;;;;;;;2.22;0.70;;;;;;;;;;468470;28;1096;-71
2023/11/15 01:16:57;;;;;;;3.08;0.80;;;;;;;;;;468842;28;1065;-71
2023/11/15 01:17:12;;;;;;;3.57;0.90;;;;;;;;;;467725;28;894;-70
2023/11/15 01:17:33;;;;;;;2.58;0.70;;;;;;;;;;467536;28;929;-70
2023/11/15 01:17:50;;;;;;;3.20;0.80;;;;;;;;;;470630;28;960;-70
2023/11/15 01:18:07;;;;;;;3.42;0.80;;;;;;;;;;471689;28;1177;-71
2023/11/15 01:18:23;;;;;;;3.15;0.80;;;;;;;;;;469866;28;1159;-70
2023/11/15 01:18:39;;;;;;;3.17;0.83;;;;;;;;;;470294;28;918;-70
2023/11/15 01:18:54;;;;;;;3.58;0.90;;;;;;;;;;470032;28;1445;-70
2023/11/15 01:19:10;;;;;;;3.13;0.80;;;;;;;;;;471174;28;920;-71
2023/11/15 01:19:25;;;;;;;3.38;0.95;;;;;;;;;;470572;28;1010;-70
2023/11/15 01:19:40;;;;;;;4.47;0.90;;;;;;;;;;468991;28;1126;-71
2023/11/15 01:19:56;;;;;;;3.95;0.75;;;;;;;;;;468526;28;1227;-70
2023/11/15 01:20:14;;;;;;;3.07;0.83;;;;;;;;;;468017;28;981;-70
2023/11/15 01:20:30;;;;;;;2.22;0.88;;;;;;;;;;468954;28;1299;-70
2023/11/15 01:20:45;;;;;;;2.47;0.90;;;;;;;;;;469077;28;1151;-71
2023/11/15 01:21:01;;;;;;;2.77;1.00;;;;;;;;;;468462;28;1378;-70
2023/11/15 01:21:18;;;;;;;2.22;0.90;;;;;;;;;;469025;28;909;-70
2023/11/15 01:21:33;;;;;;;1.67;0.70;;;;;;;;;;469710;28;1346;-71
2023/11/15 01:21:49;;;;;;;2.50;0.77;;;;;;;;;;468580;28;1015;-70
2023/11/15 01:22:04;;;;;;;3.30;0.90;;;;;;;;;;469901;28;952;-70
2023/11/15 01:22:19;;;;;;;3.00;0.90;;;;;;;;;;468563;28;1168;-70
2023/11/15 01:22:35;;;;;;;2.17;0.80;;;;;;;;;;466349;28;1203;-71
2023/11/15 01:22:50;;;;;;;2.87;1.00;;;;;;;;;;468483;28;1046;-71
2023/11/15 01:23:06;;;;;;;3.07;0.97;;;;;;;;;;468755;28;996;-70
2023/11/15 01:23:21;;;;;;;3.42;0.88;;;;;;;;;;469298;28;918;-71
2023/11/15 01:23:37;;;;;;;3.90;0.90;;;;;;;;;;470446;28;1108;-70
2023/11/15 01:23:52;;;;;;;2.92;0.93;;;;;;;;;;472516;28;999;-71
2023/11/15 01:24:07;;;;;;;1.90;0.80;;;;;;;;;;472515;28;1123;-71
2023/11/15 01:24:24;;;;;;;2.13;0.80;;;;;;;;;;470326;28;1038;-70
2023/11/15 01:24:41;;;;;;;3.40;0.85;;;;;;;;;;468155;28;1062;-70
2023/11/15 01:24:56;;;;;;;3.80;0.95;;;;;;;;;;467089;28;1140;-70
2023/11/15 01:25:12;;;;;;;2.42;0.90;;;;;;;;;;467140;28;889;-71
2023/11/15 01:25:30;;;;;;;2.07;0.80;;;;;;;;;;465831;28;1138;-70
2023/11/15 01:25:46;;;;;;;2.50;0.80;;;;;;;;;;466102;28;1587;-70
2023/11/15 01:26:02;;;;;;;2.73;0.80;;;;;;;;;;467518;28;862;-71
2023/11/15 01:26:18;;;;;;;2.50;0.80;;;;;;;;;;468549;28;1330;-70
2023/11/15 01:26:33;;;;;;;2.80;0.90;;;;;;;;;;468855;28;1147;-71
2023/11/15 01:26:50;;;;;;;3.37;0.90;;;;;;;;;;466132;28;1318;-70
2023/11/15 01:27:06;;;;;;;3.15;0.90;;;;;;;;;;464334;28;1183;-70
2023/11/15 01:27:21;;;;;;;3.03;0.90;;;;;;;;;;464932;28;1144;-70
2023/11/15 01:27:36;;;;;;;3.33;0.80;;;;;;;;;;466397;28;1290;-71
2023/11/15 01:27:52;;;;;;;2.75;0.85;;;;;;;;;;468966;28;1145;-70
2023/11/15 01:28:07;;;;;;;2.13;0.80;;;;;;;;;;469172;28;1374;-70
2023/11/15 01:28:22;;;;;;;2.33;0.80;;;;;;;;;;468257;28;1102;-71
2023/11/15 01:28:38;;;;;;;2.17;0.90;;;;;;;;;;469232;28;1114;-71
2023/11/15 01:28:54;;;;;;;1.80;0.70;;;;;;;;;;468353;28;1315;-70
2023/11/15 01:29:10;;;;;;;1.90;0.80;;;;;;;;;;467466;28;1537;-71
2023/11/15 01:29:25;;;;;;;1.83;0.77;;;;;;;;;;467473;28;985;-70
2023/11/15 01:29:40;;;;;;;2.00;0.70;;;;;;;;;;466738;28;1109;-71
2023/11/15 01:29:56;;;;;;;2.20;0.90;;;;;;;;;;467835;28;1054;-70
2023/11/15 01:30:11;;;;;;;2.53;0.90;;;;;;;;;;467230;28;976;-71
2023/11/15 01:30:27;;;;;;;2.72;0.98;;;;;;;;;;465408;28;1061;-70
2023/11/15 01:30:42;;;;;;;2.53;0.87;;;;;;;;;;465659;28;1121;-70
2023/11/15 01:30:58;;;;;;;2.80;0.77;;;;;;;;;;464920;28;1025;-70
2023/11/15 01:31:13;;;;;;;3.67;0.80;;;;;;;;;;465247;28;1173;-70
2023/11/15 01:31:28;;;;;;;3.67;0.83;;;;;;;;;;465040;28;1207;-70
2023/11/15 01:31:44;;;;;;;2.53;0.80;;;;;;;;;;466115;28;1156;-70
2023/11/15 01:32:00;;;;;;;3.13;0.88;;;;;;;;;;467092;28;1093;-71
2023/11/15 01:32:15;;;;;;;3.37;0.87;;;;;;;;;;468632;28;1014;-70
2023/11/15 01:32:30;;;;;;;2.30;0.80;;;;;;;;;;468750;28;1120;-71
2023/11/15 01:32:46;;;;;;;2.38;0.80;;;;;;;;;;468368;28;1040;-71
2023/11/15 01:33:01;;;;;;;2.67;0.90;;;;;;;;;;466552;28;1174;-71
2023/11/15 01:33:17;;;;;;;3.85;1.08;;;;;;;;;;469042;28;1129;-71
2023/11/15 01:33:33;;;;;;;3.70;0.90;;;;;;;;;;468560;28;1293;-71
2023/11/15 01:33:48;;;;;;;2.80;0.80;;;;;;;;;;467561;28;1213;-70
2023/11/15 01:34:03;;;;;;;3.10;0.93;;;;;;;;;;467174;28;1047;-70
2023/11/15 01:34:19;;;;;;;2.85;1.00;;;;;;;;;;466359;28;1072;-70
2023/11/15 01:34:34;;;;;;;2.53;0.90;;;;;;;;;;467148;28;882;-71
2023/11/15 01:34:49;;;;;;;2.27;0.80;;;;;;;;;;466688;28;962;-71
2023/11/15 01:35:05;;;;;;;2.55;0.70;;;;;;;;;;466990;28;1063;-71
2023/11/15 01:35:23;;;;;;;3.42;0.88;;;;;;;;;;468877;28;1198;-70
2023/11/15 01:35:38;;;;;;;3.47;1.00;;;;;;;;;;469266;28;1021;-70
2023/11/15 01:35:53;;;;;;;3.20;0.90;;;;;;;;;;468379;28;1054;-70
2023/11/15 01:36:09;;;;;;;2.20;0.80;;;;;;;;;;469670;28;2005;-71
2023/11/15 01:36:24;;;;;;;2.13;0.70;;;;;;;;;;468795;28;1543;-70
2023/11/15 01:36:39;;;;;;;2.28;0.70;;;;;;;;;;466737;28;1207;-70
2023/11/15 01:36:55;;;;;;;3.00;0.80;;;;;;;;;;467662;28;1710;-70
2023/11/15 01:37:10;;;;;;;3.43;0.90;;;;;;;;;;466568;28;1622;-70
2023/11/15 01:37:26;;;;;;;2.90;0.82;;;;;;;;;;466259;28;1108;-70
2023/11/15 01:37:41;;;;;;;2.83;0.77;;;;;;;;;;466568;28;1193;-71
2023/11/15 01:37:56;;;;;;;2.80;0.93;;;;;;;;;;468701;28;1072;-71
2023/11/15 01:38:12;;;;;;;3.10;1.10;;;;;;;;;;468698;28;1079;-70
2023/11/15 01:38:29;;;;;;;3.25;0.95;;;;;;;;;;468775;28;866;-70
2023/11/15 01:38:44;;;;;;;2.95;0.77;;;;;;;;;;470760;28;1084;-70
2023/11/15 01:38:59;;;;;;;3.90;0.80;;;;;;;;;;472096;28;1113;-70